createdAt,value
2023-07-07T00:00:34.555Z,16.45
2023-07-07T00:05:36.312Z,16.39
2023-07-07T00:10:36.988Z,16.30
2023-07-07T00:15:45.734Z,16.36
2023-07-07T00:20:46.724Z,16.18
2023-07-07T00:25:47.429Z,16.21
2023-07-07T00:30:49.430Z,16.15
2023-07-07T00:35:50.811Z,15.98
2023-07-07T00:40:54.091Z,15.98
2023-07-07T00:45:58.010Z,15.79
2023-07-07T00:51:02.604Z,15.75
2023-07-07T00:56:07.991Z,15.75
2023-07-07T01:01:15.341Z,15.75
2023-07-07T01:06:20.433Z,15.79
2023-07-07T01:11:21.114Z,15.68
2023-07-07T01:16:34.153Z,15.48
2023-07-07T01:21:42.870Z,15.23
2023-07-07T01:27:04.173Z,15.09
2023-07-07T01:32:11.616Z,15.01
2023-07-07T01:37:12.257Z,14.99
2023-07-07T01:42:18.182Z,15.19
2023-07-07T01:47:22.368Z,15.11
2023-07-07T01:52:33.008Z,15.10
2023-07-07T01:57:34.634Z,14.96
2023-07-07T02:02:37.941Z,14.92
2023-07-07T02:07:38.870Z,14.72
2023-07-07T02:12:39.747Z,14.61
2023-07-07T02:17:41.963Z,14.57
2023-07-07T02:22:42.628Z,14.42
2023-07-07T02:27:43.297Z,14.35
2023-07-07T02:32:45.365Z,14.26
2023-07-07T02:37:46.120Z,14.20
2023-07-07T02:42:47.317Z,14.21
2023-07-07T02:47:49.305Z,14.06
2023-07-07T02:52:49.985Z,14.08
2023-07-07T02:57:50.665Z,14.02
2023-07-07T03:02:53.018Z,14.02
2023-07-07T03:07:53.843Z,14.29
2023-07-07T03:12:55.287Z,14.46
2023-07-07T03:17:58.304Z,14.35
2023-07-07T03:23:00.179Z,14.13
2023-07-07T03:28:01.304Z,14.13
2023-07-07T03:33:12.585Z,14.16
2023-07-07T03:38:14.683Z,14.27
2023-07-07T03:43:19.468Z,14.39
2023-07-07T03:48:22.306Z,14.52
2023-07-07T03:53:23.322Z,14.61
2023-07-07T03:58:26.993Z,14.47
2023-07-07T04:03:29.337Z,14.56
2023-07-07T04:08:30.848Z,14.74
2023-07-07T04:13:33.305Z,14.48
2023-07-07T04:18:36.177Z,14.15
2023-07-07T04:23:40.373Z,14.12
2023-07-07T04:28:41.884Z,14.21
2023-07-07T04:33:43.958Z,14.36
2023-07-07T04:38:45.998Z,14.53
2023-07-07T04:43:50.849Z,14.49
2023-07-07T04:48:52.932Z,14.51
2023-07-07T04:53:54.252Z,14.61
2023-07-07T04:58:57.800Z,14.64
2023-07-07T05:04:02.089Z,14.78
2023-07-07T05:09:04.713Z,14.92
2023-07-07T05:14:05.626Z,15.09
2023-07-07T05:19:08.713Z,15.19
2023-07-07T05:24:11.267Z,15.37
2023-07-07T05:29:12.007Z,15.45
2023-07-07T05:34:14.023Z,15.58
2023-07-07T05:39:14.675Z,15.70
2023-07-07T05:44:15.349Z,15.85
2023-07-07T05:49:17.322Z,16.08
2023-07-07T05:54:17.941Z,16.25
2023-07-07T05:59:18.636Z,16.43
2023-07-07T06:04:21.271Z,16.59
2023-07-07T06:09:21.965Z,16.79
2023-07-07T06:14:22.676Z,16.88
2023-07-07T06:19:24.916Z,17.11
2023-07-07T06:24:25.607Z,17.30
2023-07-07T06:29:27.348Z,17.56
2023-07-07T06:34:29.886Z,17.74
2023-07-07T06:39:30.785Z,17.84
2023-07-07T06:44:31.665Z,18.06
2023-07-07T06:49:33.775Z,18.25
2023-07-07T06:54:34.504Z,18.42
2023-07-07T06:59:35.342Z,18.64
2023-07-07T07:04:37.335Z,18.89
2023-07-07T07:09:38.163Z,19.12
2023-07-07T07:14:38.820Z,19.32
2023-07-07T07:19:40.826Z,19.51
2023-07-07T07:24:41.519Z,19.71
2023-07-07T07:29:44.631Z,19.98
2023-07-07T07:34:46.697Z,20.18
2023-07-07T07:39:47.331Z,20.44
2023-07-07T07:44:48.133Z,20.71
2023-07-07T07:49:51.000Z,20.88
2023-07-07T07:54:51.757Z,21.08
2023-07-07T07:59:52.423Z,21.22
2023-07-07T08:04:54.495Z,21.45
2023-07-07T08:09:55.115Z,21.79
2023-07-07T08:14:55.812Z,22.10
2023-07-07T08:19:58.566Z,22.30
2023-07-07T08:25:01.537Z,22.47
2023-07-07T08:30:02.841Z,22.80
2023-07-07T08:35:05.361Z,23.03
2023-07-07T08:40:07.449Z,23.12
2023-07-07T08:45:15.893Z,23.25
2023-07-07T08:50:30.439Z,23.29
2023-07-07T08:55:45.754Z,23.51
2023-07-07T09:00:56.258Z,23.68
2023-07-07T09:06:07.436Z,23.94
2023-07-07T09:11:19.178Z,24.05
2023-07-07T09:16:29.196Z,24.16
2023-07-07T09:21:38.360Z,24.44
2023-07-07T09:26:40.073Z,24.62
2023-07-07T09:31:44.065Z,24.75
2023-07-07T09:36:54.531Z,24.89
2023-07-07T09:42:05.404Z,25.04
2023-07-07T09:47:19.272Z,25.06
2023-07-07T09:52:49.501Z,25.19
2023-07-07T09:57:58.626Z,25.36
2023-07-07T10:03:00.547Z,25.20
2023-07-07T10:08:04.363Z,25.21
2023-07-07T10:13:05.015Z,25.36
2023-07-07T10:18:15.131Z,25.59
2023-07-07T10:23:17.515Z,25.84
2023-07-07T10:28:20.396Z,25.95
2023-07-07T10:33:22.802Z,25.76
2023-07-07T10:38:27.324Z,26.01
2023-07-07T10:43:31.046Z,26.04
2023-07-07T10:48:31.937Z,26.26
2023-07-07T10:53:52.786Z,26.17
2023-07-07T10:59:11.439Z,26.33
2023-07-07T11:04:38.653Z,26.34
2023-07-07T11:10:11.974Z,26.49
2023-07-07T11:15:23.728Z,26.64
2023-07-07T11:20:49.171Z,26.86
2023-07-07T11:26:02.185Z,26.96
2023-07-07T11:31:23.346Z,27.06
2023-07-07T11:36:45.444Z,26.99
2023-07-07T11:42:04.864Z,27.24
2023-07-07T11:47:20.411Z,27.61
2023-07-07T11:52:48.694Z,27.83
2023-07-07T11:58:03.528Z,27.66
2023-07-07T12:03:27.772Z,27.86
2023-07-07T12:08:39.308Z,27.96
2023-07-07T12:14:00.012Z,27.82
2023-07-07T12:19:17.941Z,27.95
2023-07-07T12:24:25.817Z,28.20
2023-07-07T12:29:29.405Z,28.35
2023-07-07T12:34:40.244Z,28.12
2023-07-07T12:39:55.329Z,28.00
2023-07-07T12:44:59.140Z,28.41
2023-07-07T12:50:03.054Z,28.81
2023-07-07T12:55:21.833Z,28.57
2023-07-07T13:00:30.352Z,29.02
2023-07-07T13:05:34.108Z,29.34
2023-07-07T13:10:47.337Z,29.45
2023-07-07T13:15:49.394Z,29.32
2023-07-07T13:20:52.458Z,29.21
2023-07-07T13:25:53.188Z,29.36
2023-07-07T13:30:57.804Z,29.04
2023-07-07T13:36:01.394Z,29.31
2023-07-07T13:41:06.274Z,29.62
2023-07-07T13:46:17.669Z,29.90
2023-07-07T13:51:23.466Z,30.10
2023-07-07T13:56:24.935Z,29.79
2023-07-07T14:01:32.428Z,29.75
2023-07-07T14:06:34.431Z,29.57
2023-07-07T14:11:36.530Z,29.39
2023-07-07T14:16:42.046Z,29.73
2023-07-07T14:21:44.024Z,30.33
2023-07-07T14:26:45.327Z,30.61
2023-07-07T14:31:47.411Z,30.74
2023-07-07T14:36:50.426Z,30.84
2023-07-07T14:41:52.862Z,30.86
2023-07-07T14:46:55.090Z,30.97
2023-07-07T14:51:58.472Z,31.06
2023-07-07T14:57:04.966Z,31.13
2023-07-07T15:02:30.852Z,31.26
2023-07-07T15:07:32.953Z,31.55
2023-07-07T15:12:36.661Z,31.77
2023-07-07T15:17:38.705Z,31.77
2023-07-07T15:22:39.511Z,31.28
2023-07-07T15:27:40.860Z,31.65
2023-07-07T15:32:43.071Z,31.02
2023-07-07T15:37:45.035Z,31.07
2023-07-07T15:42:46.558Z,31.32
2023-07-07T15:47:48.810Z,30.45
2023-07-07T15:52:49.675Z,31.08
2023-07-07T15:57:50.366Z,31.37
2023-07-07T16:02:52.513Z,30.63
2023-07-07T16:07:53.357Z,31.03
2023-07-07T16:12:54.049Z,31.30
2023-07-07T16:17:56.157Z,32.20
2023-07-07T16:22:58.809Z,34.19
2023-07-07T16:27:59.772Z,35.33
2023-07-07T16:33:01.918Z,36.90
2023-07-07T16:38:02.691Z,37.33
2023-07-07T16:43:04.857Z,38.16
2023-07-07T16:48:13.382Z,38.06
2023-07-07T16:53:14.196Z,37.25
2023-07-07T16:58:16.344Z,34.89
2023-07-07T17:03:18.417Z,35.24
2023-07-07T17:08:19.087Z,34.45
2023-07-07T17:13:20.110Z,35.10
2023-07-07T17:18:22.200Z,35.05
2023-07-07T17:23:22.887Z,34.64
2023-07-07T17:28:23.841Z,35.16
2023-07-07T17:33:25.879Z,35.66
2023-07-07T17:38:26.723Z,35.08
2023-07-07T17:43:27.379Z,33.74
2023-07-07T17:48:29.355Z,34.15
2023-07-07T17:53:30.072Z,34.71
2023-07-07T17:58:30.841Z,33.57
2023-07-07T18:03:33.130Z,32.55
2023-07-07T18:08:34.030Z,31.89
2023-07-07T18:13:34.734Z,31.19
2023-07-07T18:18:54.074Z,29.95
2023-07-07T18:23:57.762Z,29.03
2023-07-07T18:29:01.908Z,28.51
2023-07-07T18:34:04.092Z,28.02
2023-07-07T18:39:11.384Z,27.63
2023-07-07T18:44:12.101Z,27.11
2023-07-07T18:49:14.888Z,26.89
2023-07-07T18:54:18.063Z,26.73
2023-07-07T18:59:22.375Z,26.48
2023-07-07T19:04:24.649Z,25.95
2023-07-07T19:09:25.346Z,25.65
2023-07-07T19:14:28.973Z,25.40
2023-07-07T19:19:31.028Z,25.15
2023-07-07T19:24:31.716Z,24.88
2023-07-07T19:29:32.366Z,24.59
2023-07-07T19:34:34.418Z,24.35
2023-07-07T19:39:35.674Z,24.22
2023-07-07T19:44:36.341Z,23.96
2023-07-07T19:49:38.305Z,23.74
2023-07-07T19:54:39.469Z,23.57
2023-07-07T19:59:40.154Z,23.30
2023-07-07T20:04:42.185Z,23.22
2023-07-07T20:09:42.891Z,23.20
2023-07-07T20:14:43.707Z,23.15
2023-07-07T20:19:45.745Z,23.08
2023-07-07T20:24:46.417Z,22.95
2023-07-07T20:29:47.090Z,22.99
2023-07-07T20:34:49.676Z,23.01
2023-07-07T20:39:52.609Z,22.98
2023-07-07T20:44:53.433Z,22.66
2023-07-07T20:49:55.541Z,22.64
2023-07-07T20:54:56.205Z,22.44
2023-07-07T20:59:56.860Z,22.25
2023-07-07T21:04:58.924Z,22.02
2023-07-07T21:09:59.809Z,21.86
2023-07-07T21:15:00.458Z,21.65
2023-07-07T21:20:15.122Z,21.54
2023-07-07T21:25:15.826Z,21.42
2023-07-07T21:30:18.499Z,21.28
2023-07-07T21:35:20.636Z,21.18
2023-07-07T21:40:23.087Z,21.15
2023-07-07T21:45:25.447Z,20.93
2023-07-07T21:50:28.167Z,20.86
2023-07-07T21:55:28.906Z,20.86
2023-07-07T22:00:31.690Z,20.85
2023-07-07T22:05:33.666Z,20.71
2023-07-07T22:10:39.854Z,20.62
2023-07-07T22:15:41.828Z,20.56
2023-07-07T22:20:46.275Z,20.43
2023-07-07T22:25:46.994Z,20.23
2023-07-07T22:30:50.784Z,20.21
2023-07-07T22:35:53.672Z,20.14
2023-07-07T22:40:57.039Z,20.12
2023-07-07T22:46:00.122Z,20.18
2023-07-07T22:51:02.199Z,20.08
2023-07-07T22:56:03.341Z,19.85
2023-07-07T23:01:06.883Z,19.78
2023-07-07T23:06:12.683Z,19.49
2023-07-07T23:11:16.964Z,19.35
2023-07-07T23:16:19.217Z,19.33
2023-07-07T23:21:21.246Z,19.30
2023-07-07T23:26:28.295Z,19.26
2023-07-07T23:31:29.601Z,18.96
2023-07-07T23:36:33.066Z,18.95
2023-07-07T23:41:33.811Z,18.98
2023-07-07T23:46:35.546Z,18.89
2023-07-07T23:51:37.556Z,18.77
2023-07-07T23:56:38.180Z,18.67
